Time;durP1;ratioP1;P1;durP2;ratioP2;P2;SDS_P1;SDS_P2;PMS_P1;PMS_P2;Temp;Humidity;BMP_temperature;BMP_pressure;BME280_temperature;BME280_humidity;BME280_pressure;Samples;Min_cycle;Max_cycle;Signal;HPM_P1;HPM_P2
2022/03/31 00:00:07;;;;;;;2.63;0.93;;;2.50;99.90;;;;;;5018609;28;20053;-92
2022/03/31 00:02:33;;;;;;;4.63;1.30;;;2.50;99.90;;;;;;4999118;28;20041;-91
2022/03/31 00:05:02;;;;;;;7.32;1.50;;;2.50;99.90;;;;;;5015136;28;20064;-92
2022/03/31 00:07:27;;;;;;;5.75;1.00;;;2.60;99.90;;;;;;5032413;28;20051;-91
2022/03/31 00:09:53;;;;;;;4.88;1.00;;;2.50;99.90;;;;;;5015299;28;20133;-91
2022/03/31 00:12:19;;;;;;;5.03;1.40;;;2.50;99.90;;;;;;4998837;28;20132;-89
2022/03/31 00:14:45;;;;;;;4.47;1.17;;;2.50;99.90;;;;;;5015257;28;20077;-91
2022/03/31 00:17:13;;;;;;;4.43;1.23;;;2.50;99.90;;;;;;5032041;28;20041;-90
2022/03/31 00:19:42;;;;;;;3.63;1.05;;;2.50;99.90;;;;;;5015709;28;20053;-90
2022/03/31 00:22:13;;;;;;;3.13;1.48;;;2.50;99.90;;;;;;5014779;28;20271;-90
2022/03/31 00:24:41;;;;;;;5.05;1.10;;;2.50;99.90;;;;;;5032053;28;20045;-90
2022/03/31 00:27:16;;;;;;;3.35;0.93;;;2.50;99.90;;;;;;5014863;28;20145;-92
2022/03/31 00:29:42;;;;;;;4.57;0.98;;;2.50;99.90;;;;;;5032568;28;20045;-89
2022/03/31 00:32:08;;;;;;;7.70;1.27;;;2.60;99.90;;;;;;5032052;28;20541;-89
2022/03/31 00:34:35;;;;;;;2.15;1.15;;;2.50;99.90;;;;;;5026427;28;20518;-91
2022/03/31 00:37:01;;;;;;;6.93;1.35;;;2.50;99.90;;;;;;5014137;28;20137;-92
2022/03/31 00:39:31;;;;;;;3.33;1.40;;;2.50;99.90;;;;;;5014514;28;20505;-92
2022/03/31 00:42:01;;;;;;;8.00;1.20;;;2.60;99.90;;;;;;5029531;28;20112;-92
2022/03/31 00:44:34;;;;;;;4.97;1.13;;;2.60;99.90;;;;;;5015230;28;20068;-91
2022/03/31 00:47:02;;;;;;;3.92;0.98;;;2.60;99.90;;;;;;5028976;28;20049;-90
2022/03/31 00:49:29;;;;;;;8.55;1.75;;;2.60;99.90;;;;;;5031349;28;20124;-92
2022/03/31 00:51:55;;;;;;;6.15;1.25;;;2.60;99.90;;;;;;5030717;28;20498;-93
2022/03/31 00:54:25;;;;;;;3.55;1.00;;;2.70;99.90;;;;;;5030953;28;20045;-92
2022/03/31 00:56:52;;;;;;;7.95;2.03;;;2.60;99.90;;;;;;5013710;28;20048;-92
2022/03/31 00:59:21;;;;;;;4.40;1.20;;;2.70;99.90;;;;;;5014745;28;20050;-92
2022/03/31 01:01:47;;;;;;;3.15;1.35;;;2.70;99.90;;;;;;5014986;28;20087;-93
2022/03/31 01:04:14;;;;;;;4.00;1.40;;;2.70;99.90;;;;;;5033464;28;20495;-93
2022/03/31 01:06:43;;;;;;;5.63;1.60;;;2.70;99.90;;;;;;5014485;28;20079;-94
2022/03/31 01:09:13;;;;;;;4.63;1.45;;;2.70;99.90;;;;;;5014109;28;20041;-92
2022/03/31 01:11:42;;;;;;;2.90;1.30;;;2.70;99.90;;;;;;5013864;28;20111;-93
2022/03/31 01:14:12;;;;;;;5.32;1.50;;;2.70;99.90;;;;;;5014684;28;20213;-94
2022/03/31 01:16:41;;;;;;;4.65;1.30;;;2.70;99.90;;;;;;5016265;28;20064;-92
2022/03/31 01:19:13;;;;;;;2.67;1.17;;;2.60;99.90;;;;;;5016884;28;20107;-93
2022/03/31 01:21:46;;;;;;;2.47;1.10;;;2.60;99.90;;;;;;5000584;28;20057;-93
2022/03/31 01:24:15;;;;;;;4.63;1.48;;;2.60;99.90;;;;;;5031690;28;20049;-89
2022/03/31 01:26:41;;;;;;;3.58;1.33;;;2.60;99.90;;;;;;5015373;28;20041;-91
2022/03/31 01:29:13;;;;;;;2.95;1.60;;;2.60;99.90;;;;;;5016587;28;20073;-91
2022/03/31 01:31:49;;;;;;;5.28;1.48;;;2.60;99.90;;;;;;5018327;28;20049;-88
2022/03/31 01:34:15;;;;;;;2.50;1.10;;;2.60;99.90;;;;;;5004365;28;20053;-94
2022/03/31 01:36:44;;;;;;;5.13;1.60;;;2.60;99.90;;;;;;5025451;28;20512;-92
2022/03/31 01:39:13;;;;;;;8.02;1.50;;;2.60;99.90;;;;;;5011312;28;20049;-92
2022/03/31 01:41:42;;;;;;;3.72;1.30;;;2.50;99.90;;;;;;5022875;28;20045;-91
2022/03/31 01:44:12;;;;;;;4.40;1.45;;;2.50;99.90;;;;;;5017127;28;20048;-91
2022/03/31 01:46:43;;;;;;;3.05;1.25;;;2.50;99.90;;;;;;5016721;28;20039;-92
2022/03/31 01:49:12;;;;;;;4.60;1.45;;;2.60;99.90;;;;;;4999950;28;20131;-92
2022/03/31 01:51:43;;;;;;;5.70;1.23;;;2.60;99.90;;;;;;5016041;28;20045;-90
2022/03/31 01:54:11;;;;;;;4.63;1.60;;;2.60;99.90;;;;;;5018335;28;20049;-91
2022/03/31 01:56:41;;;;;;;6.40;1.83;;;2.50;99.90;;;;;;5017471;28;20128;-91
2022/03/31 01:59:07;;;;;;;4.57;1.92;;;2.60;99.90;;;;;;5016942;28;20878;-91
2022/03/31 02:01:33;;;;;;;7.57;2.10;;;2.50;99.90;;;;;;5018085;28;20080;-91
2022/03/31 02:04:05;;;;;;;5.45;2.00;;;2.60;99.90;;;;;;5002791;28;20064;-88
2022/03/31 02:06:31;;;;;;;5.07;2.10;;;2.60;99.90;;;;;;5018634;28;20379;-91
2022/03/31 02:09:00;;;;;;;4.93;2.08;;;2.60;99.90;;;;;;5033047;28;20045;-89
2022/03/31 02:11:35;;;;;;;5.70;2.13;;;2.50;99.90;;;;;;5028928;28;20068;-91
2022/03/31 02:14:04;;;;;;;7.82;2.78;;;2.60;99.90;;;;;;5020412;28;20044;-92
2022/03/31 02:16:32;;;;;;;6.68;2.38;;;2.60;99.90;;;;;;5006711;28;20045;-91
2022/03/31 02:19:01;;;;;;;5.97;2.47;;;2.60;99.90;;;;;;5031350;28;20041;-90
2022/03/31 02:21:33;;;;;;;7.60;2.70;;;2.60;99.90;;;;;;5024855;28;20055;-90
2022/03/31 02:24:03;;;;;;;8.05;2.40;;;2.50;99.90;;;;;;5021801;28;20211;-91
2022/03/31 02:26:31;;;;;;;5.82;2.70;;;2.60;99.90;;;;;;5009075;28;20040;-88
2022/03/31 02:29:02;;;;;;;6.38;3.00;;;2.60;99.90;;;;;;5019840;28;20130;-91
2022/03/31 02:31:33;;;;;;;4.95;2.80;;;2.60;99.90;;;;;;5022145;28;20061;-90
2022/03/31 02:33:59;;;;;;;7.72;3.45;;;2.50;99.90;;;;;;5021413;28;20123;-88
2022/03/31 02:36:35;;;;;;;13.18;4.15;;;2.60;99.90;;;;;;5036971;28;20045;-88
2022/03/31 02:39:04;;;;;;;8.82;4.25;;;2.50;99.90;;;;;;5036742;28;20505;-90
2022/03/31 02:41:32;;;;;;;11.10;4.80;;;2.60;99.90;;;;;;5025258;28;20083;-91
2022/03/31 02:44:09;;;;;;;15.52;5.30;;;2.50;99.90;;;;;;5006738;28;20045;-90
2022/03/31 02:46:35;;;;;;;9.05;5.30;;;2.50;99.90;;;;;;5023604;28;20502;-89
2022/03/31 02:49:04;;;;;;;9.85;5.50;;;2.50;99.90;;;;;;5038385;28;20053;-87
2022/03/31 02:51:32;;;;;;;9.60;6.68;;;2.50;99.90;;;;;;5020879;28;20095;-88
2022/03/31 02:56:55;;;;;;;10.82;6.65;;;2.50;99.90;;;;;;5022238;28;20080;-90
2022/03/31 02:59:23;;;;;;;12.48;7.60;;;2.50;99.90;;;;;;5019931;28;20049;-90
2022/03/31 03:01:55;;;;;;;11.00;6.72;;;2.50;99.90;;;;;;5019549;28;20044;-89
2022/03/31 03:04:24;;;;;;;13.70;7.72;;;2.60;99.90;;;;;;5037118;28;20048;-91
2022/03/31 03:06:52;;;;;;;10.35;7.35;;;2.60;99.90;;;;;;5022485;28;20037;-91
2022/03/31 03:09:23;;;;;;;10.88;7.10;;;2.60;99.90;;;;;;5026222;28;20123;-91
2022/03/31 03:12:06;;;;;;;15.23;8.13;;;2.60;99.90;;;;;;5044327;28;20075;-92
2022/03/31 03:14:32;;;;;;;12.57;8.57;;;2.60;99.90;;;;;;5046562;28;20044;-91
2022/03/31 03:17:15;;;;;;;;;;;;;;;;;;;;;
2022/03/31 03:19:54;;;;;;;13.20;9.18;;;2.70;99.90;;;;;;5041455;28;20091;-92
2022/03/31 03:22:31;;;;;;;17.30;10.05;;;2.70;99.90;;;;;;5020812;28;20357;-89
2022/03/31 03:25:23;;;;;;;19.77;10.50;;;2.70;99.90;;;;;;5020535;28;20049;-90
2022/03/31 03:27:52;;;;;;;13.75;10.02;;;2.60;99.90;;;;;;5018722;28;20076;-91
2022/03/31 03:30:22;;;;;;;16.25;10.80;;;2.60;99.90;;;;;;5018081;28;20045;-89
2022/03/31 03:32:53;;;;;;;17.55;11.65;;;2.60;99.90;;;;;;5019018;28;20132;-89
2022/03/31 03:35:29;;;;;;;;;;;;;;;;;;;;;
2022/03/31 03:37:55;;;;;;;;;;;2.70;99.90;;;;;;5035561;28;20049;-89
2022/03/31 03:40:25;;;;;;;17.93;11.70;;;2.60;99.90;;;;;;5021037;28;19925;-90
2022/03/31 03:42:54;;;;;;;21.83;13.15;;;2.60;99.90;;;;;;5004024;28;20057;-89
2022/03/31 03:45:22;;;;;;;20.92;12.88;;;2.70;99.90;;;;;;5034489;28;20044;-91
2022/03/31 03:48:02;;;;;;;19.15;12.93;;;2.70;99.90;;;;;;5020391;28;20124;-91
2022/03/31 03:50:33;;;;;;;17.30;11.55;;;2.70;99.90;;;;;;5020392;28;20053;-91
2022/03/31 03:53:06;;;;;;;15.55;10.55;;;2.70;99.90;;;;;;5018929;28;20053;-90
2022/03/31 03:58:23;;;;;;;14.52;10.10;;;2.70;99.90;;;;;;5040987;28;20059;-90
2022/03/31 04:00:54;;;;;;;15.30;9.57;;;2.60;99.90;;;;;;5043063;28;20104;-93
2022/03/31 04:03:22;;;;;;;14.50;9.52;;;2.60;99.90;;;;;;5036090;28;20082;-92
2022/03/31 04:05:51;;;;;;;13.82;8.70;;;2.60;99.90;;;;;;5027644;28;20068;-92
2022/03/31 04:08:21;;;;;;;14.73;9.27;;;2.60;99.90;;;;;;5040176;28;20045;-91
2022/03/31 04:10:53;;;;;;;14.55;9.45;;;2.60;99.90;;;;;;5006363;28;20048;-92
2022/03/31 04:13:23;;;;;;;14.05;9.60;;;2.60;99.90;;;;;;5035964;28;20103;-91
2022/03/31 04:15:50;;;;;;;11.10;8.48;;;2.50;99.90;;;;;;5011049;28;20134;-93
2022/03/31 04:18:15;;;;;;;13.52;9.45;;;2.60;99.90;;;;;;5019388;28;20060;-91
2022/03/31 04:20:44;;;;;;;12.40;9.00;;;2.60;99.90;;;;;;5035035;28;20041;-88
2022/03/31 04:23:13;;;;;;;12.82;9.02;;;2.60;99.90;;;;;;5020826;28;20102;-91
2022/03/31 04:25:46;;;;;;;13.20;9.15;;;2.40;99.90;;;;;;5036385;28;20059;-88
2022/03/31 04:28:13;;;;;;;14.32;9.02;;;2.50;99.90;;;;;;5038082;28;20080;-89
2022/03/31 04:30:39;;;;;;;12.18;8.93;;;2.60;99.90;;;;;;5036237;28;20049;-89
2022/03/31 04:33:05;;;;;;;12.50;9.27;;;2.50;99.90;;;;;;5015276;28;20075;-88
2022/03/31 04:35:33;;;;;;;11.82;8.50;;;2.60;99.90;;;;;;5032606;28;20502;-89
2022/03/31 04:38:08;;;;;;;11.85;8.27;;;2.50;99.90;;;;;;5000501;28;20083;-88
2022/03/31 04:40:34;;;;;;;16.30;9.53;;;2.50;99.90;;;;;;5017766;28;20045;-88
2022/03/31 04:43:02;;;;;;;10.90;8.55;;;2.50;99.90;;;;;;5000351;28;20606;-91
2022/03/31 04:45:37;;;;;;;12.30;8.95;;;2.50;99.90;;;;;;5035503;28;20045;-90
2022/03/31 04:48:03;;;;;;;12.95;9.23;;;2.50;99.90;;;;;;5023770;28;20045;-91
2022/03/31 04:50:32;;;;;;;12.10;8.52;;;2.40;99.90;;;;;;5019326;28;20095;-91
2022/03/31 04:53:06;;;;;;;12.65;9.27;;;2.40;99.90;;;;;;5020941;28;20131;-89
2022/03/31 04:55:33;;;;;;;12.85;9.27;;;2.40;99.90;;;;;;5019167;28;20052;-89
2022/03/31 04:58:01;;;;;;;11.45;8.52;;;2.40;99.90;;;;;;5017356;28;20061;-91
2022/03/31 05:00:26;;;;;;;13.75;9.73;;;2.40;99.90;;;;;;5023854;28;20045;-89
2022/03/31 05:02:52;;;;;;;13.20;9.70;;;2.40;99.90;;;;;;5019012;28;20101;-90
2022/03/31 05:05:21;;;;;;;13.70;9.95;;;2.40;99.90;;;;;;5018236;28;20124;-93
2022/03/31 05:07:46;;;;;;;14.13;9.52;;;2.30;99.90;;;;;;5019055;28;20036;-90
2022/03/31 05:10:24;;;;;;;16.73;12.57;;;2.30;99.90;;;;;;5019017;28;20118;-90
2022/03/31 05:12:52;;;;;;;12.75;10.00;;;2.40;99.90;;;;;;5035808;28;20099;-89
2022/03/31 05:15:31;;;;;;;14.73;10.23;;;2.40;99.90;;;;;;5019169;28;20159;-91
2022/03/31 05:18:04;;;;;;;16.65;10.98;;;2.30;99.90;;;;;;5018739;28;20410;-90
2022/03/31 05:20:42;;;;;;;15.00;10.77;;;2.40;99.90;;;;;;5034680;28;20049;-89
2022/03/31 05:23:13;;;;;;;16.60;11.88;;;2.30;99.90;;;;;;5016891;28;20047;-88
2022/03/31 05:25:45;;;;;;;16.00;11.40;;;2.40;99.90;;;;;;5033519;28;20045;-88
2022/03/31 05:28:13;;;;;;;17.50;12.40;;;2.40;99.90;;;;;;5016466;28;20053;-88
2022/03/31 05:30:44;;;;;;;18.30;12.73;;;2.30;99.90;;;;;;5001848;28;20410;-89
2022/03/31 05:33:11;;;;;;;15.18;11.77;;;2.30;99.90;;;;;;4993890;28;20045;-88
2022/03/31 05:35:38;;;;;;;18.92;13.32;;;2.40;99.90;;;;;;5029612;28;20084;-86
2022/03/31 05:38:04;;;;;;;19.13;12.90;;;2.40;99.90;;;;;;5035682;28;20068;-91
2022/03/31 05:40:30;;;;;;;18.73;13.38;;;2.40;99.90;;;;;;5019469;28;20048;-93
2022/03/31 05:42:56;;;;;;;18.52;13.27;;;2.40;99.90;;;;;;5018215;28;20045;-88
2022/03/31 05:45:25;;;;;;;19.90;14.07;;;2.50;99.90;;;;;;5035888;28;20121;-93
2022/03/31 05:47:52;;;;;;;19.05;13.60;;;2.50;99.90;;;;;;5018247;28;20052;-91
2022/03/31 05:50:18;;;;;;;20.10;14.38;;;2.50;99.90;;;;;;5014080;28;20046;-88
2022/03/31 05:52:44;;;;;;;19.23;13.50;;;2.50;99.90;;;;;;5013359;28;20490;-89
2022/03/31 05:55:14;;;;;;;20.35;14.13;;;2.50;99.90;;;;;;4997375;28;20051;-89
2022/03/31 05:57:40;;;;;;;18.70;13.30;;;2.60;99.90;;;;;;5010570;28;20073;-91
2022/03/31 06:00:13;;;;;;;19.77;13.38;;;2.60;99.90;;;;;;5032361;28;20052;-90
2022/03/31 06:02:45;;;;;;;17.77;12.70;;;2.60;99.90;;;;;;5016883;28;20055;-91
2022/03/31 06:05:10;;;;;;;17.90;12.95;;;2.60;99.90;;;;;;5016434;28;20100;-92
2022/03/31 06:07:37;;;;;;;16.30;12.15;;;2.70;99.90;;;;;;5017608;28;20055;-90
2022/03/31 06:10:05;;;;;;;17.33;12.32;;;2.70;99.90;;;;;;5017202;28;20045;-88
2022/03/31 06:12:35;;;;;;;16.77;12.35;;;2.70;99.90;;;;;;5034635;28;20049;-89
2022/03/31 06:15:04;;;;;;;15.45;11.43;;;2.70;99.90;;;;;;5018017;28;20045;-91
2022/03/31 06:17:35;;;;;;;16.20;11.70;;;2.80;99.90;;;;;;5034454;28;20051;-92
2022/03/31 06:20:03;;;;;;;14.65;11.07;;;2.80;99.90;;;;;;5018131;28;20060;-90
2022/03/31 06:22:35;;;;;;;17.52;12.02;;;2.80;99.90;;;;;;5018335;28;20140;-90
2022/03/31 06:25:01;;;;;;;17.40;12.40;;;2.80;99.90;;;;;;5034808;28;20045;-89
2022/03/31 06:27:27;;;;;;;16.77;12.95;;;2.80;99.90;;;;;;5016890;28;20049;-89
2022/03/31 06:29:53;;;;;;;15.90;11.65;;;2.90;99.90;;;;;;5017455;28;20083;-91
2022/03/31 06:32:21;;;;;;;15.25;10.77;;;3.00;99.90;;;;;;5017537;28;20052;-91
2022/03/31 06:37:37;;;;;;;13.82;10.35;;;2.90;99.90;;;;;;5031039;28;20046;-91
2022/03/31 06:40:06;;;;;;;11.85;8.38;;;2.90;99.90;;;;;;5013558;28;20050;-92
2022/03/31 06:42:37;;;;;;;11.70;9.43;;;2.90;99.90;;;;;;5004325;28;20045;-91
2022/03/31 06:48:05;;;;;;;10.70;8.57;;;2.80;99.90;;;;;;5026412;28;20056;-90
2022/03/31 06:51:14;;;;;;;12.00;9.18;;;2.90;99.90;;;;;;5017560;28;20771;-92
2022/03/31 06:53:53;;;;;;;12.02;9.30;;;2.80;99.90;;;;;;5028819;28;20121;-91
2022/03/31 06:56:31;;;;;;;12.80;9.68;;;2.80;99.90;;;;;;4997748;28;20068;-92
2022/03/31 06:59:15;;;;;;;12.10;9.70;;;2.80;99.90;;;;;;5013279;28;20053;-90
2022/03/31 07:02:05;;;;;;;12.93;9.82;;;2.80;99.90;;;;;;5030198;28;20073;-90
2022/03/31 07:07:25;;;;;;;14.85;11.07;;;2.70;99.90;;;;;;5028400;28;20109;-89
2022/03/31 07:10:00;;;;;;;17.05;11.57;;;2.70;99.90;;;;;;5029515;28;20107;-90
2022/03/31 07:12:52;;;;;;;14.10;11.13;;;2.90;99.90;;;;;;5015021;28;20126;-91
2022/03/31 07:15:23;;;;;;;15.10;11.30;;;2.90;99.90;;;;;;5031604;28;20064;-91
2022/03/31 07:17:59;;;;;;;15.77;11.63;;;2.90;99.90;;;;;;5011304;28;20103;-91
2022/03/31 07:20:25;;;;;;;22.45;12.65;;;3.00;99.90;;;;;;5017982;28;20399;-91
2022/03/31 07:22:53;;;;;;;15.88;12.00;;;3.00;99.90;;;;;;5000327;28;20050;-91
2022/03/31 07:25:19;;;;;;;17.23;12.13;;;3.10;99.90;;;;;;5016655;28;20840;-90
2022/03/31 07:27:45;;;;;;;16.50;12.45;;;3.00;99.90;;;;;;5015882;28;20037;-90
2022/03/31 07:30:16;;;;;;;17.20;12.43;;;3.10;99.90;;;;;;5012964;28;20143;-91
2022/03/31 07:32:56;;;;;;;17.83;12.48;;;3.00;99.90;;;;;;5016861;28;20490;-89
2022/03/31 07:35:27;;;;;;;22.33;13.10;;;3.00;99.90;;;;;;5000100;28;20128;-91
2022/03/31 07:38:16;;;;;;;17.05;12.20;;;3.00;99.90;;;;;;5014680;28;20049;-90
2022/03/31 07:40:45;;;;;;;18.95;13.60;;;3.00;99.90;;;;;;5016998;28;20057;-92
2022/03/31 07:43:16;;;;;;;19.92;13.52;;;3.00;99.90;;;;;;5016320;28;20045;-91
2022/03/31 07:47:15;;;;;;;;;;;;;;;;;;;;;
2022/03/31 07:49:14;;;;;;;18.67;12.90;;;3.00;99.90;;;;;;5010992;28;20077;-89
2022/03/31 07:51:47;;;;;;;18.90;12.85;;;3.00;99.90;;;;;;5016637;28;20103;-92
2022/03/31 07:54:15;;;;;;;18.45;13.88;;;3.00;99.90;;;;;;5016136;28;20092;-90
2022/03/31 07:56:44;;;;;;;17.42;12.90;;;3.10;99.90;;;;;;5014632;28;20065;-91
2022/03/31 08:02:17;;;;;;;17.67;13.50;;;2.90;99.90;;;;;;5003504;28;20056;-89
2022/03/31 08:04:43;;;;;;;16.55;12.90;;;3.00;99.90;;;;;;5007307;28;20046;-87
2022/03/31 08:07:14;;;;;;;17.33;12.88;;;3.00;99.90;;;;;;5010320;28;20052;-88
2022/03/31 08:09:40;;;;;;;16.95;12.63;;;3.10;99.90;;;;;;5014464;28;20446;-88
2022/03/31 08:12:06;;;;;;;16.85;12.52;;;3.10;99.90;;;;;;5013461;28;20042;-90
2022/03/31 08:14:46;;;;;;;15.60;10.50;;;3.00;99.90;;;;;;5028779;28;20061;-89
2022/03/31 08:17:17;;;;;;;15.38;11.40;;;2.90;99.90;;;;;;5013631;28;20064;-89
2022/03/31 08:19:45;;;;;;;13.40;10.98;;;3.10;99.90;;;;;;5015333;28;20045;-89
2022/03/31 08:22:28;;;;;;;15.23;11.02;;;3.10;99.90;;;;;;4998749;28;20049;-89
2022/03/31 08:24:54;;;;;;;14.68;11.45;;;3.10;99.90;;;;;;5000883;28;20410;-88
2022/03/31 08:27:23;;;;;;;13.70;10.48;;;3.10;99.90;;;;;;5014075;28;20128;-90
2022/03/31 08:30:04;;;;;;;11.43;8.82;;;3.10;99.90;;;;;;5014527;28;20045;-91
2022/03/31 08:32:46;;;;;;;13.85;9.15;;;3.10;99.90;;;;;;5001246;28;20053;-90
2022/03/31 08:35:24;;;;;;;10.30;8.13;;;3.00;99.90;;;;;;5016470;28;20060;-88
2022/03/31 08:37:54;;;;;;;10.95;8.07;;;2.90;99.90;;;;;;5031691;28;20053;-90
2022/03/31 08:40:26;;;;;;;11.82;8.13;;;2.80;99.90;;;;;;5011357;28;20042;-90
2022/03/31 08:43:08;;;;;;;9.60;6.82;;;2.80;99.90;;;;;;5015427;28;20487;-93
2022/03/31 08:45:46;;;;;;;8.38;6.03;;;2.80;99.90;;;;;;5015684;28;20065;-92
2022/03/31 08:48:16;;;;;;;7.22;5.60;;;2.70;99.90;;;;;;5029130;28;20049;-89
2022/03/31 08:50:54;;;;;;;7.72;6.13;;;2.70;99.90;;;;;;5013988;28;20053;-90
2022/03/31 08:53:26;;;;;;;8.07;6.13;;;2.60;99.90;;;;;;5013433;28;20049;-91
2022/03/31 08:56:03;;;;;;;8.70;5.85;;;2.70;99.90;;;;;;5014856;28;20509;-91
2022/03/31 08:58:57;;;;;;;8.32;6.07;;;2.80;99.90;;;;;;5014391;28;20199;-91
2022/03/31 09:01:23;;;;;;;7.97;5.63;;;2.70;99.90;;;;;;5014078;28;20128;-91
2022/03/31 09:03:54;;;;;;;9.38;5.65;;;2.70;99.90;;;;;;5012890;28;20100;-91
2022/03/31 09:06:53;;;;;;;8.02;5.97;;;2.60;99.90;;;;;;4998708;28;20116;-91
2022/03/31 09:09:34;;;;;;;8.45;5.28;;;2.60;99.90;;;;;;5006031;28;20046;-90
2022/03/31 09:12:14;;;;;;;7.45;5.55;;;2.60;99.90;;;;;;5028757;28;20180;-91
2022/03/31 09:15:01;;;;;;;;;;;;;;;;;;;;;
2022/03/31 09:17:35;;;;;;;7.57;5.70;;;2.60;99.90;;;;;;5031174;28;20103;-90
2022/03/31 09:20:03;;;;;;;8.05;5.63;;;2.50;99.90;;;;;;5013575;28;20083;-90
2022/03/31 09:22:48;;;;;;;9.02;6.15;;;2.60;99.90;;;;;;5013397;28;20057;-90
2022/03/31 09:25:35;;;;;;;7.85;5.82;;;2.40;99.90;;;;;;5014506;28;20056;-88
2022/03/31 09:28:21;;;;;;;7.25;5.60;;;2.40;99.90;;;;;;5014349;28;20140;-89
2022/03/31 09:30:56;;;;;;;10.07;6.50;;;2.30;99.90;;;;;;5015564;28;20191;-89
2022/03/31 09:33:48;;;;;;;8.70;6.07;;;2.20;99.90;;;;;;5012408;28;20068;-89
2022/03/31 09:37:06;;;;;;;10.25;6.55;;;2.20;99.90;;;;;;5013812;28;20060;-89
2022/03/31 09:39:38;;;;;;;7.57;5.07;;;2.10;99.90;;;;;;5004518;28;20054;-89
2022/03/31 09:42:17;;;;;;;9.77;6.72;;;2.00;99.90;;;;;;5014739;28;20050;-88
2022/03/31 09:44:46;;;;;;;9.32;6.40;;;1.90;99.90;;;;;;4997067;28;20501;-88
2022/03/31 09:47:28;;;;;;;;;;;;;;;;;;;;;
2022/03/31 09:50:27;;;;;;;9.93;6.60;;;1.90;99.90;;;;;;5030937;28;20487;-88
2022/03/31 09:52:55;;;;;;;9.95;6.90;;;1.80;99.90;;;;;;5028977;28;20041;-88
2022/03/31 09:55:44;;;;;;;;;;;;;;;;;;;;;
2022/03/31 09:58:19;;;;;;;10.03;7.00;;;1.60;99.90;;;;;;5026945;28;20046;-91
2022/03/31 10:00:54;;;;;;;10.82;7.53;;;1.60;99.90;;;;;;5013720;28;20053;-90
2022/03/31 10:03:26;;;;;;;11.02;7.45;;;1.40;99.90;;;;;;5006311;28;20049;-89
2022/03/31 10:05:58;;;;;;;11.98;7.80;;;1.40;99.90;;;;;;5030667;28;20045;-91
2022/03/31 10:08:44;;;;;;;12.25;7.45;;;1.30;99.90;;;;;;5015663;28;20060;-91
2022/03/31 10:11:23;;;;;;;11.05;7.30;;;1.20;99.90;;;;;;5013743;28;20132;-91
2022/03/31 10:13:55;;;;;;;11.60;7.28;;;1.30;99.90;;;;;;5019934;28;20064;-89
2022/03/31 10:16:44;;;;;;;10.05;6.70;;;1.30;99.90;;;;;;5014545;28;20136;-90
2022/03/31 10:25:40;;;;;;;10.65;7.07;;;1.20;99.90;;;;;;5021182;28;20148;-85
2022/03/31 10:28:28;;;;;;;8.90;6.45;;;1.30;99.90;;;;;;5011679;28;20418;-87
2022/03/31 10:31:16;;;;;;;11.07;7.25;;;1.20;99.90;;;;;;5028970;28;20045;-88
2022/03/31 10:33:57;;;;;;;10.60;7.00;;;1.20;99.90;;;;;;5032392;28;20045;-89
2022/03/31 10:36:23;;;;;;;12.63;8.52;;;1.30;99.90;;;;;;5009872;28;20064;-86
2022/03/31 10:38:58;;;;;;;11.95;7.95;;;1.20;99.90;;;;;;5031479;28;20042;-86
2022/03/31 10:41:42;;;;;;;13.63;8.07;;;1.30;99.90;;;;;;5011602;28;20049;-87
2022/03/31 10:44:11;;;;;;;13.45;9.00;;;1.20;99.90;;;;;;5027823;28;20048;-89
2022/03/31 10:46:38;;;;;;;11.27;7.45;;;1.20;99.90;;;;;;5017478;28;20041;-89
2022/03/31 10:49:20;;;;;;;56.90;32.33;;;1.10;99.90;;;;;;5014772;28;20046;-92
2022/03/31 10:51:48;;;;;;;11.98;8.00;;;1.20;99.90;;;;;;5017813;28;20080;-90
2022/03/31 10:54:35;;;;;;;12.25;8.70;;;1.20;99.90;;;;;;4998408;28;20100;-87
2022/03/31 10:57:09;;;;;;;11.57;7.45;;;1.20;99.90;;;;;;5013304;28;20128;-90
2022/03/31 10:59:36;;;;;;;12.23;7.75;;;1.20;99.90;;;;;;5020106;28;20452;-87
2022/03/31 11:02:17;;;;;;;10.80;7.18;;;1.10;99.90;;;;;;5016441;28;20053;-87
2022/03/31 11:08:18;;;;;;;;;;;;;;;;;;;;;
2022/03/31 11:10:50;;;;;;;18.63;11.02;;;1.10;99.90;;;;;;5027223;28;20046;-88
2022/03/31 11:13:18;;;;;;;18.17;10.68;;;1.10;99.90;;;;;;5015114;28;20050;-88
2022/03/31 11:16:04;;;;;;;16.92;10.27;;;1.10;99.90;;;;;;5014869;28;20084;-88
2022/03/31 11:18:30;;;;;;;13.75;8.20;;;1.10;99.90;;;;;;5014703;28;20406;-88
2022/03/31 11:21:01;;;;;;;14.68;9.30;;;1.10;99.90;;;;;;4999072;28;20038;-88
2022/03/31 11:23:33;;;;;;;14.43;8.68;;;1.10;99.90;;;;;;5014261;28;20054;-88
2022/03/31 11:26:12;;;;;;;;;;;;;;;;;;;;;
2022/03/31 11:28:41;;;;;;;14.52;8.93;;;1.10;99.90;;;;;;5031154;28;20053;-88
2022/03/31 11:31:14;;;;;;;14.02;9.63;;;1.10;99.90;;;;;;5014242;28;20061;-88
2022/03/31 11:33:40;;;;;;;13.50;8.77;;;1.10;99.90;;;;;;5014335;28;20084;-88
2022/03/31 11:36:06;;;;;;;13.40;8.77;;;1.10;99.90;;;;;;5014012;28;20053;-87
2022/03/31 11:38:32;;;;;;;12.35;8.25;;;1.10;99.90;;;;;;4997402;28;20119;-86
2022/03/31 11:41:00;;;;;;;13.73;8.82;;;1.20;99.90;;;;;;5012221;28;20658;-87
2022/03/31 11:43:27;;;;;;;14.15;8.55;;;1.20;99.90;;;;;;5005581;28;20045;-87
2022/03/31 11:45:55;;;;;;;14.10;8.77;;;1.30;99.90;;;;;;5031242;28;20093;-87
2022/03/31 11:48:31;;;;;;;12.40;7.95;;;1.20;99.90;;;;;;4996888;28;20128;-88
2022/03/31 11:51:01;;;;;;;13.07;8.70;;;1.10;99.90;;;;;;5021606;28;20046;-87
2022/03/31 11:53:40;;;;;;;13.90;8.65;;;1.20;99.90;;;;;;5030226;28;20046;-87
2022/03/31 11:56:16;;;;;;;13.00;9.18;;;1.10;99.90;;;;;;5013895;28;20478;-88
2022/03/31 11:58:47;;;;;;;11.98;8.35;;;1.20;99.90;;;;;;5013653;28;20136;-88
2022/03/31 12:01:14;;;;;;;11.55;7.47;;;1.10;99.90;;;;;;5015071;28;20137;-87
2022/03/31 12:03:39;;;;;;;12.48;8.38;;;1.10;99.90;;;;;;5029507;28;20057;-87
2022/03/31 12:06:09;;;;;;;13.68;8.32;;;1.10;99.90;;;;;;5013898;28;20102;-88
2022/03/31 12:08:43;;;;;;;10.90;8.30;;;1.10;99.90;;;;;;5010630;28;20054;-88
2022/03/31 12:11:10;;;;;;;11.48;8.48;;;1.20;99.90;;;;;;5025766;28;20064;-88
2022/03/31 12:13:52;;;;;;;11.27;7.95;;;1.10;99.90;;;;;;4991546;28;20401;-88
2022/03/31 12:16:22;;;;;;;12.65;8.45;;;1.20;99.90;;;;;;5011320;28;20175;-88
2022/03/31 12:18:59;;;;;;;12.10;9.02;;;1.20;99.90;;;;;;5008243;28;20049;-88
2022/03/31 12:21:43;;;;;;;13.18;9.38;;;1.20;99.90;;;;;;5004911;28;20038;-88
2022/03/31 12:24:12;;;;;;;13.15;8.93;;;1.40;99.90;;;;;;5010069;28;20053;-87
2022/03/31 12:27:00;;;;;;;15.60;10.48;;;1.30;99.90;;;;;;4996616;28;20038;-89
2022/03/31 12:29:31;;;;;;;14.98;10.43;;;1.30;99.90;;;;;;5021190;28;20080;-88
2022/03/31 12:32:07;;;;;;;17.13;10.68;;;1.20;99.90;;;;;;5017199;28;20076;-87
2022/03/31 12:34:52;;;;;;;14.70;10.57;;;1.20;99.90;;;;;;5031223;28;20044;-87
2022/03/31 12:37:45;;;;;;;15.65;10.70;;;1.20;99.90;;;;;;5032503;28;20064;-90
2022/03/31 12:40:19;;;;;;;17.17;12.18;;;1.20;99.90;;;;;;5021590;28;20053;-91
2022/03/31 12:43:07;;;;;;;19.27;12.20;;;1.30;99.90;;;;;;4999069;28;20052;-89
2022/03/31 12:45:36;;;;;;;18.27;12.68;;;1.20;99.90;;;;;;4998845;28;20499;-90
2022/03/31 12:48:12;;;;;;;19.85;13.27;;;1.30;99.90;;;;;;5001415;28;20513;-90
2022/03/31 12:50:44;;;;;;;22.55;14.07;;;1.30;99.90;;;;;;5001139;28;20080;-89
2022/03/31 12:53:26;;;;;;;22.13;13.38;;;1.30;99.90;;;;;;5040070;28;20448;-90
2022/03/31 12:56:22;;;;;;;24.23;15.15;;;1.40;99.90;;;;;;5037180;28;20048;-92
2022/03/31 12:59:35;;;;;;;23.02;15.48;;;1.50;99.90;;;;;;5033818;28;20640;-91
2022/03/31 13:02:11;;;;;;;23.00;14.73;;;1.60;99.90;;;;;;5007338;28;20471;-90
2022/03/31 13:08:13;;;;;;;24.95;16.48;;;1.60;99.90;;;;;;5027881;28;20048;-91
2022/03/31 13:11:21;;;;;;;25.92;17.67;;;1.70;99.90;;;;;;5016005;28;20045;-90
2022/03/31 13:14:03;;;;;;;28.52;18.38;;;1.80;99.90;;;;;;5026522;28;20128;-89
2022/03/31 13:16:30;;;;;;;29.25;16.85;;;1.90;99.90;;;;;;4990106;28;20045;-90
2022/03/31 13:19:14;;;;;;;30.95;19.92;;;1.90;99.90;;;;;;5007730;28;20044;-90
2022/03/31 13:21:56;;;;;;;;;;;;;;;;;;;;;
2022/03/31 13:24:22;;;;;;;32.70;20.45;;;2.00;99.90;;;;;;5029125;28;20056;-88
2022/03/31 13:26:51;;;;;;;35.50;20.50;;;2.10;99.90;;;;;;5015235;28;20051;-88
2022/03/31 13:29:20;;;;;;;29.48;17.73;;;2.20;99.90;;;;;;5015899;28;20045;-87
2022/03/31 13:31:51;;;;;;;30.42;18.95;;;2.00;99.90;;;;;;5021026;28;20116;-87
2022/03/31 13:34:23;;;;;;;27.88;17.95;;;2.10;99.90;;;;;;4997162;28;20092;-89
2022/03/31 13:37:10;;;;;;;30.73;19.52;;;2.10;99.90;;;;;;5018083;28;20048;-88
2022/03/31 13:39:51;;;;;;;35.58;19.92;;;2.10;99.90;;;;;;5031684;28;20041;-89
2022/03/31 13:42:32;;;;;;;33.28;20.65;;;2.20;99.90;;;;;;5030535;28;20516;-88
2022/03/31 13:45:01;;;;;;;32.60;20.60;;;2.20;99.90;;;;;;5016415;28;20051;-90
2022/03/31 13:47:32;;;;;;;36.72;20.17;;;2.30;99.90;;;;;;5031751;28;20052;-90
2022/03/31 13:50:00;;;;;;;36.55;22.23;;;2.30;99.90;;;;;;5008878;28;20055;-91
2022/03/31 13:52:26;;;;;;;30.83;21.08;;;2.40;99.90;;;;;;5015483;28;20053;-91
2022/03/31 13:54:52;;;;;;;35.22;22.73;;;2.40;99.90;;;;;;5007816;28;20566;-90